World of Logs combat log analyzer allows gamers to save, share and analyze their raiding experiences conveniently and thoroughly in the Blizzard MMO World of Warcraft. If you're new here, make sure you check out the tour for a 1 minute introduction. If you have any questions, we're happy to answer them on the forums.

DPS HPS
Odyn
Helya
Guarm
Reports for Thok the Bloodthirsty - statistics
# Date Time Damage DPS Guild Realm
101 20 Sep 2014 03:59 736.90M 3072777.2 Tempest EU-Azshara
102 20 Sep 2014 03:59 736.90M 3070574.9 macht DRUCK EU-Mal'Ganis
103 12 Sep 2014 04:00 734.28M 3052091.4 Гиена Нэйшн EU-Свежеватель Душ
104 17 Sep 2014 04:00 721.36M 2996989.1 Rampancy EU-Свежеватель Душ
105 17 Sep 2014 04:00 721.36M 2996565.8 На кромке лезвия х EU-Свежеватель Душ
106 18 Sep 2014 04:00 720.59M 2991940.6 Hypothermia EU-Ravencrest
107 01 Oct 2014 04:01 806.39M 3338359.2 Patch EU-Anetheron
108 19 Sep 2014 04:03 726.94M 2987623.3 Гиена Нейшн EU-Свежеватель Душ
109 17 Sep 2014 04:03 731.08M 3003233.4 Фанхауз EU-Ревущий фьорд
110 05 Oct 2014 04:03 830.86M 3412182.4 Entropy EU-Bronzebeard
111 05 Oct 2014 04:03 830.86M 3411972.2 Entropy EU-Bronzebeard
112 24 Sep 2014 04:03 823.14M 3379811.9 A Necessary Evil EU-Hellfire
113 06 Oct 2014 04:03 747.43M 3068601.0 eXample EU-Ravencrest
114 17 Sep 2014 04:04 734.00M 3002786.3 Макс EU-Ревущий фьорд
115 05 Oct 2014 04:04 808.93M 3307743.1 Ясно понятно EU-Гордунни
116 10 Sep 2014 04:05 744.19M 3030348.2 Eleven Degrees EU-Lothar
117 18 Sep 2014 04:05 818.45M 3329489.7 Entropy EU-Bronzebeard
118 10 Oct 2014 04:06 732.58M 2972432.0 Гиена Нейшн EU-Свежеватель Душ
119 15 Sep 2014 04:06 825.59M 3344845.6 Holyoverheal EU-Свежеватель Душ
120 01 Oct 2014 04:07 792.29M 3204311.1 Malevolent EU-Blackmoore
121 01 Oct 2014 04:07 750.99M 3035536.1 The Howl EU-Kael'thas
122 13 Sep 2014 04:07 747.39M 3018513.0 Uniquê EU-Blackrock
123 05 Oct 2014 04:07 761.70M 3075506.4 Caprica EU-Вечная Песня
124 05 Oct 2014 04:07 761.70M 3075220.8 Boomchicha EU-Борейская тундра
125 24 Sep 2014 04:07 749.45M 3022844.6 Merge EU-Silvermoon
126 01 Oct 2014 04:08 726.06M 2926696.0 Ultio EU-Antonidas
127 24 Sep 2014 04:08 752.62M 3029445.6 Vindicta V2 EU-Sargeras
128 01 Oct 2014 04:08 749.32M 3015063.2 Eleven Degrees EU-Lothar
129 08 Oct 2014 04:09 749.10M 3003931.7 Squàd EU-Archimonde
130 10 Sep 2014 04:10 815.53M 3261880.9 Patch EU-Anetheron
131 02 Sep 2014 04:10 735.89M 2939031.1 CRY MOAR US-Blackhand
132 16 Sep 2014 04:10 741.01M 2958861.6 Lymi Logs US-Stormrage
133 24 Sep 2014 04:10 794.51M 3168288.5 RaidMalGanis EU-Mal'Ganis
134 30 Sep 2014 04:11 734.26M 2923663.1 Alpha US-Whisperwind
135 10 Sep 2014 04:11 795.23M 3160862.5 Masterplan EU-Mal'Ganis
136 11 Sep 2014 04:11 724.43M 2878100.4 Merge EU-Silvermoon
137 17 Sep 2014 04:11 721.87M 2867742.0 Попа пахнет розами EU-Дракономор
138 11 Sep 2014 04:11 724.43M 2877483.1 Merge EU-Silvermoon
139 15 Sep 2014 04:12 759.46M 3013409.4 eXample EU-Ravencrest
140 15 Sep 2014 04:12 759.46M 3013301.8 eXample EU-Ravencrest
141 07 Oct 2014 04:12 805.62M 3196333.9 Team Dad US-Bleeding Hollow
142 10 Sep 2014 04:12 726.47M 2881543.7 Old Dogz EU-Draenor
143 20 Sep 2014 04:12 821.97M 3259918.9 Orcy US-Mal'Ganis
144 08 Oct 2014 04:12 818.78M 3246283.5 Spooncake's logs EU-Twilight's Hammer
145 01 Oct 2014 04:12 725.91M 2876070.1 Perception EU-Kazzak
146 07 Sep 2014 04:13 728.83M 2879181.7 Посольство АК EU-Гордунни
147 01 Oct 2014 04:13 793.91M 3136125.2 Ärzak EU-Elune
148 28 Sep 2014 04:13 859.25M 3392668.3 Ekirei EU-Drak'thul
149 28 Sep 2014 04:13 859.25M 3392413.8 Ekirei EU-Drak'thul
150 02 Oct 2014 04:13 727.71M 2872960.0 Merge EU-Silvermoon
151 02 Oct 2014 04:13 727.70M 2872431.5 Merge EU-Silvermoon
152 10 Sep 2014 04:13 761.70M 3001316.2 VMTL EU-Twisting Nether
153 25 Sep 2014 04:14 725.26M 2850618.8 Level UP EU-Frostwolf
154 24 Sep 2014 04:14 762.03M 2993878.7 Ascendance EU-Draenor
155 03 Sep 2014 04:14 791.64M 3107615.9 Malevolent EU-Blackmoore
156 10 Sep 2014 04:15 743.01M 2910468.7 DevilsRejects EU-Destromath
157 01 Oct 2014 04:15 807.16M 3160372.3 In flagrantì EU-Aegwynn
158 01 Oct 2014 04:15 807.16M 3160285.7 In flagrantì EU-Aegwynn
159 08 Oct 2014 04:16 787.29M 3075259.2 Arcadia EU-Illidan
160 21 Sep 2014 04:16 732.12M 2858205.9 Shadow and Light US-Kargath
161 14 Sep 2014 04:16 737.66M 2876565.7 RivLe EU-Гордунни
162 16 Sep 2014 04:16 739.93M 2885374.4 Alpha US-Whisperwind
163 21 Sep 2014 04:16 794.28M 3096393.1 Pony Logs EU-Вечная Песня
164 20 Sep 2014 04:16 820.00M 3193314.9 Timeless EU-Illidan
165 20 Sep 2014 04:16 820.00M 3193041.3 Timeless EU-Illidan
166 24 Sep 2014 04:16 802.86M 3124800.2 Outlaw Immortalz EU-Darksorrow
167 20 Sep 2014 04:16 744.87M 2898734.7 Рак Гейминг EU-Свежеватель Душ
168 17 Sep 2014 04:17 858.64M 3340643.5 Malevolent EU-Blackmoore
169 17 Sep 2014 04:17 858.64M 3340604.6 Malevolent EU-Blackmoore
170 28 Sep 2014 04:17 758.41M 2947382.4 gifted EU-Mal'Ganis
171 09 Oct 2014 04:17 820.46M 3187629.8 Dunning Kruger EU-Frostwolf
172 17 Sep 2014 04:17 767.75M 2979819.9 gifted EU-Mal'Ganis
173 17 Sep 2014 04:17 767.75M 2979542.4 gifted EU-Mal'Ganis
174 02 Feb 2014 04:17 859.60M 3334680.0 Method EU-Twisting Nether
175 02 Oct 2014 04:17 738.58M 2864705.8 Eutopia EU-Suramar
176 08 Oct 2014 04:18 804.88M 3117389.3 Niebelungen EU-Khaz Modan
177 08 Oct 2014 04:18 804.88M 3117111.6 Niebelungen EU-Khaz Modan
178 10 Sep 2014 04:18 730.35M 2827726.2 Collision EU-Ragnaros
179 21 Sep 2014 04:18 822.38M 3182612.7 Leap and Rend EU-Kazzak
180 20 Sep 2014 04:18 721.21M 2790946.0 Rivall EU-Седогрив
181 22 Sep 2014 04:18 824.70M 3185895.4 kevin EU-Frostmane
182 22 Sep 2014 04:18 824.70M 3185649.2 Sparks EU-The Maelstrom
183 25 Sep 2014 04:19 816.67M 3148371.3 zeip logs EU-Twisting Nether
184 19 Sep 2014 04:19 792.82M 3054394.1 Phoenix EU-Burning Legion
185 18 Sep 2014 04:19 755.36M 2909670.2 La mancha ultravioleta EU-C'Thun
186 18 Sep 2014 04:19 755.36M 2909670.2 La mancha ultravioleta EU-C'Thun
187 18 Sep 2014 04:19 755.36M 2909670.2 La mancha ultravioleta EU-C'Thun
188 18 Sep 2014 04:19 755.36M 2909490.9 Premonition EU-C'Thun
189 05 Oct 2014 04:19 860.16M 3311416.8 Orcy US-Mal'Ganis
190 08 Oct 2014 04:19 740.45M 2848830.9 Merge EU-Silvermoon
191 10 Sep 2014 04:20 791.04M 3037347.5 Zerø EU-Blackmoore
192 10 Sep 2014 04:20 863.21M 3309304.3 Nomad US-Hyjal
193 17 Sep 2014 04:20 722.82M 2771065.9 Caprica EU-Вечная Песня
194 17 Sep 2014 04:20 722.82M 2770927.8 Emerald Dream EU-Вечная Песня
195 17 Sep 2014 04:21 794.43M 3039063.6 Zerø EU-Blackmoore
196 01 Oct 2014 04:21 811.93M 3105553.0 RaidMalGanis EU-Mal'Ganis
197 02 Oct 2014 04:21 795.56M 3040401.1 Это будет легендарно EU-Черный Шрам
198 18 Sep 2014 04:21 721.01M 2755256.2 Incinerate EU-Blackmoore
199 08 Oct 2014 04:21 810.55M 3097414.3 FA Logs EU-Nozdormu
200 25 Sep 2014 04:21 721.54M 2757118.1 Shyne's Log EU-Hyjal

Please do not close the page with the ad you want to report.

I've posted a guide on how to report misbehaving ads on the forum. Please follow the instructions and help make the internet a safer place. Thanks for you time.